Avery, Iowa
Current Conditions -  °F | °C
As of 11:53 AM on Saturday 25 Oct 2014 (Local Time) from KOTM Reporting Station
Clear Clear  
Wind Chill: 69°   Ceiling: Unl
Heat Index: 69°   Visibility: 10mi
Dew Point: 46°   Wind: 7mph
Humidity: 44%   Direction: 10°N
Pressure: 30.07"   Gusts: NA
Location:  41.0299°N, 92.7795°W
Report Text: KOTM 251653Z AUTO 01006KT 10SM CLR 21/08 A3007 RMK AO2 SLP182 T02060078
Loading
Personal Weather Stations






























Interactive Weather Map
Tropical Storm Tracking
New forecast layout! Learn more

10-Day Weather Forecast

Advertisements
Track Severe Weather on mobile